Time;durP1;ratioP1;P1;durP2;ratioP2;P2;SDS_P1;SDS_P2;PMS_P1;PMS_P2;Temp;Humidity;BMP_temperature;BMP_pressure;BME280_temperature;BME280_humidity;BME280_pressure;Samples;Min_cycle;Max_cycle;Signal;HPM_P1;HPM_P2
2022/11/29 00:01:12;;;;;;;;;38.00;35.00;;;;;;;;5030543;28;8966;-73
2022/11/29 00:03:38;;;;;;;;;39.00;34.00;;;;;;;;5030405;28;8792;-73
2022/11/29 00:06:07;;;;;;;;;35.33;32.00;;;;;;;;5030599;28;8796;-73
2022/11/29 00:08:33;;;;;;;;;41.00;32.67;;;;;;;;5030380;28;8867;-73
2022/11/29 00:11:06;;;;;;;;;33.00;30.00;;;;;;;;5030130;28;11545;-73
2022/11/29 00:13:31;;;;;;;;;36.00;30.00;;;;;;;;5030534;28;8888;-73
2022/11/29 00:16:00;;;;;;;;;32.67;29.00;;;;;;;;5030228;28;11673;-73
2022/11/29 00:18:26;;;;;;;;;34.67;32.00;;;;;;;;5030288;28;8810;-73
2022/11/29 00:20:51;;;;;;;;;38.67;29.67;;;;;;;;5030486;28;11514;-73
2022/11/29 00:23:16;;;;;;;;;34.67;31.00;;;;;;;;5030413;28;8792;-74
2022/11/29 00:25:41;;;;;;;;;37.00;33.67;;;;;;;;5030401;28;8796;-73
2022/11/29 00:28:07;;;;;;;;;36.33;33.00;;;;;;;;5029800;28;8985;-73
2022/11/29 00:30:32;;;;;;;;;33.67;32.00;;;;;;;;5061791;28;8819;-73
2022/11/29 00:32:57;;;;;;;;;39.67;35.00;;;;;;;;5030093;28;8869;-73
2022/11/29 00:35:22;;;;;;;;;38.33;32.33;;;;;;;;5030543;28;8799;-74
2022/11/29 00:37:48;;;;;;;;;34.00;31.00;;;;;;;;5032374;28;8812;-74
2022/11/29 00:40:13;;;;;;;;;36.33;30.00;;;;;;;;5032785;28;8788;-74
2022/11/29 00:42:38;;;;;;;;;36.33;33.00;;;;;;;;5030388;28;8808;-73
2022/11/29 00:45:04;;;;;;;;;35.00;31.33;;;;;;;;5030095;28;8827;-74
2022/11/29 00:47:29;;;;;;;;;38.00;32.00;;;;;;;;5030317;28;8791;-72
2022/11/29 00:49:55;;;;;;;;;38.33;30.67;;;;;;;;5029814;28;8819;-72
2022/11/29 00:52:20;;;;;;;;;38.00;34.00;;;;;;;;5030197;28;8816;-75
2022/11/29 00:54:45;;;;;;;;;35.67;32.33;;;;;;;;5029986;28;8905;-75
2022/11/29 00:57:10;;;;;;;;;38.67;34.67;;;;;;;;5031036;23;8886;-71
2022/11/29 00:59:36;;;;;;;;;36.67;28.67;;;;;;;;5011181;28;8822;-72
2022/11/29 01:02:01;;;;;;;;;32.67;31.00;;;;;;;;5011006;28;8891;-73
2022/11/29 01:04:26;;;;;;;;;35.33;30.33;;;;;;;;5010835;28;8790;-71
2022/11/29 01:06:52;;;;;;;;;32.00;29.67;;;;;;;;5010915;28;8798;-72
2022/11/29 01:09:17;;;;;;;;;36.00;33.33;;;;;;;;5011013;28;8786;-72
2022/11/29 01:11:43;;;;;;;;;39.67;30.67;;;;;;;;5011163;28;8809;-72
2022/11/29 01:14:10;;;;;;;;;29.33;26.00;;;;;;;;5010902;28;8783;-71
2022/11/29 01:16:35;;;;;;;;;28.33;28.33;;;;;;;;5010729;28;8913;-72
2022/11/29 01:19:01;;;;;;;;;35.67;32.33;;;;;;;;5010723;28;8937;-71
2022/11/29 01:21:27;;;;;;;;;26.67;26.33;;;;;;;;5010628;28;8834;-71
2022/11/29 01:23:52;;;;;;;;;32.33;29.00;;;;;;;;5010730;28;8823;-71
2022/11/29 01:26:23;;;;;;;;;28.67;27.00;;;;;;;;5010734;28;8779;-71
2022/11/29 01:28:49;;;;;;;;;32.00;28.00;;;;;;;;5010676;28;8825;-71
2022/11/29 01:31:19;;;;;;;;;36.00;26.00;;;;;;;;5010619;28;8798;-71
2022/11/29 01:33:45;;;;;;;;;29.33;29.00;;;;;;;;5010678;28;8924;-71
2022/11/29 01:36:12;;;;;;;;;32.00;27.00;;;;;;;;5025755;28;8834;-71
2022/11/29 01:38:37;;;;;;;;;32.33;27.67;;;;;;;;5010632;28;8844;-71
2022/11/29 01:41:04;;;;;;;;;29.00;27.00;;;;;;;;5025689;28;11557;-71
2022/11/29 01:43:30;;;;;;;;;29.33;29.00;;;;;;;;5010419;28;8782;-72
2022/11/29 01:45:55;;;;;;;;;34.00;30.00;;;;;;;;5010451;28;11557;-72
2022/11/29 01:48:26;;;;;;;;;26.33;24.67;;;;;;;;5010537;28;8802;-71
2022/11/29 01:50:53;;;;;;;;;23.00;21.00;;;;;;;;5010526;28;8813;-71
2022/11/29 01:53:19;;;;;;;;;31.33;28.33;;;;;;;;5010414;28;11544;-71
2022/11/29 01:55:46;;;;;;;;;29.67;26.67;;;;;;;;5042746;23;11574;-74
2022/11/29 01:58:13;;;;;;;;;30.67;26.67;;;;;;;;5028114;28;8938;-74
2022/11/29 02:00:38;;;;;;;;;29.00;26.00;;;;;;;;5029080;28;11537;-75
2022/11/29 02:03:09;;;;;;;;;27.33;26.67;;;;;;;;5029336;28;12352;-75
2022/11/29 02:05:35;;;;;;;;;33.00;30.33;;;;;;;;5029560;28;8800;-75
2022/11/29 02:08:01;;;;;;;;;30.33;30.33;;;;;;;;5029429;28;8811;-74
2022/11/29 02:10:36;;;;;;;;;26.00;26.00;;;;;;;;5029336;28;8816;-74
2022/11/29 02:13:14;;;;;;;;;30.33;30.33;;;;;;;;5029295;28;8815;-75
2022/11/29 02:15:52;;;;;;;;;27.33;23.33;;;;;;;;5030661;28;11560;-75
2022/11/29 02:18:32;;;;;;;;;28.33;27.00;;;;;;;;5032978;28;11525;-75
2022/11/29 02:21:06;;;;;;;;;28.00;23.75;;;;;;;;5032840;28;11720;-75
2022/11/29 02:23:41;;;;;;;;;33.67;30.00;;;;;;;;5032720;28;11544;-74
2022/11/29 02:26:06;;;;;;;;;27.33;21.00;;;;;;;;5032698;28;11565;-75
2022/11/29 02:28:50;;;;;;;;;31.33;26.33;;;;;;;;5032877;28;11524;-74
2022/11/29 02:31:34;;;;;;;;;23.00;20.33;;;;;;;;5032698;28;9016;-75
2022/11/29 02:34:05;;;;;;;;;27.00;25.67;;;;;;;;5032875;28;8838;-74
2022/11/29 02:36:54;;;;;;;;;26.00;24.33;;;;;;;;5032776;28;11648;-74
2022/11/29 02:39:19;;;;;;;;;26.00;26.00;;;;;;;;5047856;28;12305;-75
2022/11/29 02:41:51;;;;;;;;;34.67;26.67;;;;;;;;5030987;28;8844;-75
2022/11/29 02:44:36;;;;;;;;;27.00;25.33;;;;;;;;5031580;28;8780;-75
2022/11/29 02:47:04;;;;;;;;;32.00;28.33;;;;;;;;5025064;28;11520;-75
2022/11/29 02:49:30;;;;;;;;;33.33;27.00;;;;;;;;5036647;28;11520;-74
2022/11/29 02:52:05;;;;;;;;;30.00;25.00;;;;;;;;5037172;28;8896;-74
2022/11/29 02:54:53;;;;;;;;;30.33;25.00;;;;;;;;5032665;28;8893;-73
2022/11/29 02:57:32;;;;;;;;;32.33;28.00;;;;;;;;5047982;28;8840;-74
2022/11/29 03:00:03;;;;;;;;;30.00;23.67;;;;;;;;5032451;28;8816;-74
2022/11/29 03:02:28;;;;;;;;;26.00;21.33;;;;;;;;5032506;28;8913;-75
2022/11/29 03:04:59;;;;;;;;;27.33;25.33;;;;;;;;5032271;28;8796;-74
2022/11/29 03:07:27;;;;;;;;;23.67;22.33;;;;;;;;5032480;28;8822;-75
2022/11/29 03:10:13;;;;;;;;;30.00;28.67;;;;;;;;5032441;28;8807;-75
2022/11/29 03:12:44;;;;;;;;;25.33;24.67;;;;;;;;5032175;28;9698;-73
2022/11/29 03:15:12;;;;;;;;;26.00;22.00;;;;;;;;5032207;28;8787;-75
2022/11/29 03:17:56;;;;;;;;;25.00;23.00;;;;;;;;5032269;28;8851;-74
2022/11/29 03:20:22;;;;;;;;;13.67;11.00;;;;;;;;5032114;28;8808;-74
2022/11/29 03:23:03;;;;;;;;;26.00;20.67;;;;;;;;5030764;28;8844;-75
2022/11/29 03:25:31;;;;;;;;;26.00;22.00;;;;;;;;5031761;28;8827;-74
2022/11/29 03:28:10;;;;;;;;;29.67;23.00;;;;;;;;5046686;28;8811;-74
2022/11/29 03:30:36;;;;;;;;;22.67;22.67;;;;;;;;5031799;28;8799;-75
2022/11/29 03:33:08;;;;;;;;;22.00;19.00;;;;;;;;5031227;28;8799;-76
2022/11/29 03:35:36;;;;;;;;;28.00;22.67;;;;;;;;5030896;28;12316;-75
2022/11/29 03:38:08;;;;;;;;;10.00;10.00;;;;;;;;5031431;28;8812;-75
2022/11/29 03:40:52;;;;;;;;;20.67;20.67;;;;;;;;5031373;28;11616;-76
2022/11/29 03:43:20;;;;;;;;;29.00;23.67;;;;;;;;5046839;28;8800;-76
2022/11/29 03:45:54;;;;;;;;;23.00;22.33;;;;;;;;5031517;28;8795;-77
2022/11/29 03:48:23;;;;;;;;;23.00;22.00;;;;;;;;5031389;28;8800;-75
2022/11/29 03:50:52;;;;;;;;;25.67;22.00;;;;;;;;5031096;28;11573;-76
2022/11/29 03:53:33;;;;;;;;;22.33;19.67;;;;;;;;5031166;28;12446;-76
2022/11/29 03:56:02;;;;;;;;;20.00;19.00;;;;;;;;5031328;28;11516;-75
2022/11/29 03:58:35;;;;;;;;;24.67;23.00;;;;;;;;5030933;28;11590;-75
2022/11/29 04:01:10;;;;;;;;;23.00;19.00;;;;;;;;5030739;28;11553;-75
2022/11/29 04:03:54;;;;;;;;;22.00;21.33;;;;;;;;5031151;28;11511;-75
2022/11/29 04:06:22;;;;;;;;;20.33;19.67;;;;;;;;5030892;28;11512;-75
2022/11/29 04:08:56;;;;;;;;;23.00;21.33;;;;;;;;5030634;28;11529;-75
2022/11/29 04:11:53;;;;;;;;;26.33;23.67;;;;;;;;5030322;28;8942;-74
2022/11/29 04:14:27;;;;;;;;;24.33;19.33;;;;;;;;5030959;28;8889;-75
2022/11/29 04:17:03;;;;;;;;;25.00;22.67;;;;;;;;5030773;28;11524;-75
2022/11/29 04:19:37;;;;;;;;;14.67;14.67;;;;;;;;5019036;28;11582;-74
2022/11/29 04:22:18;;;;;;;;;22.00;20.00;;;;;;;;5020109;28;11545;-74
2022/11/29 04:24:43;;;;;;;;;20.00;16.00;;;;;;;;5020265;28;11669;-74
2022/11/29 04:27:17;;;;;;;;;20.00;16.33;;;;;;;;5018480;28;12304;-74
2022/11/29 04:29:45;;;;;;;;;20.67;19.00;;;;;;;;5018296;28;8896;-72
2022/11/29 04:32:20;;;;;;;;;24.33;18.33;;;;;;;;5017982;28;11570;-74
2022/11/29 04:34:54;;;;;;;;;19.33;19.33;;;;;;;;5033221;28;12332;-75
2022/11/29 04:37:45;;;;;;;;;13.00;13.00;;;;;;;;5018558;28;11684;-73
2022/11/29 04:40:16;;;;;;;;;15.50;15.25;;;;;;;;5019896;28;12279;-74
2022/11/29 04:42:42;;;;;;;;;20.00;16.67;;;;;;;;5019501;28;11541;-74
2022/11/29 04:45:27;;;;;;;;;16.67;14.00;;;;;;;;5033011;28;12412;-75
2022/11/29 04:47:58;;;;;;;;;19.33;16.33;;;;;;;;5035349;28;9492;-72
2022/11/29 04:50:36;;;;;;;;;22.00;16.67;;;;;;;;5017836;28;11627;-74
2022/11/29 04:53:13;;;;;;;;;20.00;17.00;;;;;;;;5019082;28;11537;-74
2022/11/29 04:55:38;;;;;;;;;20.00;19.00;;;;;;;;5018854;28;12341;-74
2022/11/29 04:58:22;;;;;;;;;18.67;17.67;;;;;;;;5017741;28;11551;-73
2022/11/29 05:00:56;;;;;;;;;17.00;13.33;;;;;;;;5021750;28;8840;-74
2022/11/29 05:03:34;;;;;;;;;15.50;12.25;;;;;;;;5023724;28;11620;-73
2022/11/29 05:06:14;;;;;;;;;21.33;19.00;;;;;;;;5018906;28;11549;-74
2022/11/29 05:08:43;;;;;;;;;22.67;15.33;;;;;;;;5018857;28;11661;-73
2022/11/29 05:11:26;;;;;;;;;13.67;13.67;;;;;;;;5017312;28;11568;-75
2022/11/29 05:14:09;;;;;;;;;13.25;13.00;;;;;;;;5032679;28;11553;-74
2022/11/29 05:16:45;;;;;;;;;19.67;14.67;;;;;;;;5018089;28;11548;-74
2022/11/29 05:19:26;;;;;;;;;16.67;14.67;;;;;;;;5017357;28;11576;-74
2022/11/29 05:21:59;;;;;;;;;19.33;16.00;;;;;;;;5017468;28;11575;-74
2022/11/29 05:24:33;;;;;;;;;20.00;16.00;;;;;;;;5017882;28;11525;-74
2022/11/29 05:27:05;;;;;;;;;19.67;17.00;;;;;;;;5018508;28;11656;-74
2022/11/29 05:29:40;;;;;;;;;14.00;14.00;;;;;;;;5019203;28;12162;-73
2022/11/29 05:32:20;;;;;;;;;21.67;18.33;;;;;;;;5019114;28;12347;-77
2022/11/29 05:35:04;;;;;;;;;22.33;16.67;;;;;;;;5030377;28;11635;-72
2022/11/29 05:37:44;;;;;;;;;17.00;16.00;;;;;;;;5009554;28;11558;-71
2022/11/29 05:40:12;;;;;;;;;16.33;16.33;;;;;;;;5009524;28;11688;-71
2022/11/29 05:42:37;;;;;;;;;18.33;16.00;;;;;;;;5009420;28;11545;-71
2022/11/29 05:45:02;;;;;;;;;18.33;16.33;;;;;;;;5009138;28;11565;-71
2022/11/29 05:47:48;;;;;;;;;14.67;13.33;;;;;;;;5009591;28;8925;-70
2022/11/29 05:50:13;;;;;;;;;19.67;14.67;;;;;;;;5010109;28;8841;-69
2022/11/29 05:52:57;;;;;;;;;17.00;14.00;;;;;;;;5013382;28;11549;-72
2022/11/29 05:55:28;;;;;;;;;14.00;13.00;;;;;;;;5013438;28;8833;-71
2022/11/29 05:58:09;;;;;;;;;16.33;13.00;;;;;;;;5013692;28;11559;-71
2022/11/29 06:00:50;;;;;;;;;18.33;17.00;;;;;;;;5013106;28;11654;-71
2022/11/29 06:03:16;;;;;;;;;27.33;25.00;;;;;;;;5013053;28;11800;-71
2022/11/29 06:05:46;;;;;;;;;22.33;19.33;;;;;;;;5013344;28;8790;-72
2022/11/29 06:08:17;;;;;;;;;16.00;16.00;;;;;;;;5013016;28;8798;-73
2022/11/29 06:10:51;;;;;;;;;20.67;20.67;;;;;;;;5028048;28;11607;-70
2022/11/29 06:13:36;;;;;;;;;22.00;16.67;;;;;;;;5013193;28;11661;-70
2022/11/29 06:16:10;;;;;;;;;18.67;17.67;;;;;;;;5020083;28;11616;-73
2022/11/29 06:18:54;;;;;;;;;17.67;14.00;;;;;;;;5032548;28;11555;-72
2022/11/29 06:21:28;;;;;;;;;16.33;14.67;;;;;;;;5032691;28;11534;-73
2022/11/29 06:24:04;;;;;;;;;13.00;12.00;;;;;;;;5013529;28;11817;-71
2022/11/29 06:26:29;;;;;;;;;18.00;17.67;;;;;;;;5013010;28;8879;-70
2022/11/29 06:29:06;;;;;;;;;20.00;20.00;;;;;;;;5012596;28;8821;-70
2022/11/29 06:31:38;;;;;;;;;7.67;7.67;;;;;;;;5013113;28;8782;-72
2022/11/29 06:34:16;;;;;;;;;16.00;16.00;;;;;;;;5012706;28;8782;-71
2022/11/29 06:37:02;;;;;;;;;19.00;16.00;;;;;;;;5027890;28;11698;-72
2022/11/29 06:39:28;;;;;;;;;15.33;15.33;;;;;;;;5012542;28;11617;-69
2022/11/29 06:41:53;;;;;;;;;14.67;14.00;;;;;;;;5012938;28;8883;-70
2022/11/29 06:44:19;;;;;;;;;17.67;15.33;;;;;;;;5012685;28;8794;-69
2022/11/29 06:46:46;;;;;;;;;13.33;11.33;;;;;;;;5012851;28;9018;-70
2022/11/29 06:49:20;;;;;;;;;15.00;13.67;;;;;;;;5027945;28;8834;-76
2022/11/29 06:51:49;;;;;;;;;13.33;10.67;;;;;;;;5012833;28;11619;-73
2022/11/29 06:54:17;;;;;;;;;5.00;1.67;;;;;;;;5012815;28;11511;-72
2022/11/29 06:56:54;;;;;;;;;14.67;14.00;;;;;;;;5012675;28;11602;-72
2022/11/29 06:59:20;;;;;;;;;17.67;16.67;;;;;;;;5012357;28;12373;-70
2022/11/29 07:02:00;;;;;;;;;15.33;14.00;;;;;;;;5011416;28;11532;-74
2022/11/29 07:04:33;;;;;;;;;24.33;14.33;;;;;;;;5012107;28;8880;-67
2022/11/29 07:06:58;;;;;;;;;16.00;13.75;;;;;;;;5011942;28;11550;-70
2022/11/29 07:09:32;;;;;;;;;15.50;11.00;;;;;;;;5011638;28;11565;-72
2022/11/29 07:11:57;;;;;;;;;13.25;10.25;;;;;;;;5011991;28;9545;-68
2022/11/29 07:14:22;;;;;;;;;13.33;13.00;;;;;;;;5018048;28;11514;-69
2022/11/29 07:17:06;;;;;;;;;19.00;13.00;;;;;;;;5012924;28;9577;-71
2022/11/29 07:19:34;;;;;;;;;10.50;10.00;;;;;;;;5011999;28;9671;-70
2022/11/29 07:22:15;;;;;;;;;14.00;12.50;;;;;;;;5026855;28;11679;-70
2022/11/29 07:24:55;;;;;;;;;11.50;10.75;;;;;;;;5011787;28;11529;-70
2022/11/29 07:27:31;;;;;;;;;16.33;13.33;;;;;;;;5012016;28;12311;-70
2022/11/29 07:30:11;;;;;;;;;13.67;10.33;;;;;;;;5011672;28;11575;-70
2022/11/29 07:32:41;;;;;;;;;12.33;11.67;;;;;;;;5011514;28;12293;-70
2022/11/29 07:35:06;;;;;;;;;17.00;14.67;;;;;;;;5011456;28;11597;-70
2022/11/29 07:37:38;;;;;;;;;17.00;13.00;;;;;;;;5011314;28;11532;-71
2022/11/29 07:40:26;;;;;;;;;14.50;13.25;;;;;;;;5011477;28;8849;-70
2022/11/29 07:42:51;;;;;;;;;14.00;13.67;;;;;;;;5011549;28;11563;-69
2022/11/29 07:45:36;;;;;;;;;10.00;10.00;;;;;;;;5011310;28;11535;-70
2022/11/29 07:48:02;;;;;;;;;14.00;13.33;;;;;;;;5011078;28;8853;-69
2022/11/29 07:50:28;;;;;;;;;13.75;13.00;;;;;;;;5011140;28;11584;-70
2022/11/29 07:52:54;;;;;;;;;15.50;13.00;;;;;;;;5010936;28;8802;-69
2022/11/29 07:55:20;;;;;;;;;14.00;10.25;;;;;;;;5011281;28;8810;-69
2022/11/29 07:57:46;;;;;;;;;13.50;12.00;;;;;;;;5011391;28;11512;-69
2022/11/29 08:00:12;;;;;;;;;10.75;10.75;;;;;;;;5011323;28;11574;-73
2022/11/29 08:02:38;;;;;;;;;9.50;8.00;;;;;;;;5026349;28;9947;-73
2022/11/29 08:05:03;;;;;;;;;16.75;10.00;;;;;;;;5011146;28;11605;-74
2022/11/29 08:07:29;;;;;;;;;10.00;9.00;;;;;;;;5026559;28;8895;-74
2022/11/29 08:09:54;;;;;;;;;15.50;11.00;;;;;;;;5011152;28;8838;-73
2022/11/29 08:12:19;;;;;;;;;9.50;9.50;;;;;;;;5011157;28;8798;-74
2022/11/29 08:14:45;;;;;;;;;22.33;20.00;;;;;;;;5010580;28;9019;-74
2022/11/29 08:17:10;;;;;;;;;29.33;23.33;;;;;;;;5010871;28;9786;-74
2022/11/29 08:19:35;;;;;;;;;15.50;14.75;;;;;;;;5010762;28;8849;-75
2022/11/29 08:22:01;;;;;;;;;11.50;10.00;;;;;;;;5025800;28;8829;-71
2022/11/29 08:24:26;;;;;;;;;14.00;11.00;;;;;;;;5010917;28;8867;-71
2022/11/29 08:26:51;;;;;;;;;8.00;8.00;;;;;;;;5011004;28;8779;-71
2022/11/29 08:29:17;;;;;;;;;10.00;10.00;;;;;;;;5010708;28;8829;-71
2022/11/29 08:31:42;;;;;;;;;12.00;10.00;;;;;;;;5010436;28;8971;-71
2022/11/29 08:34:09;;;;;;;;;11.50;9.75;;;;;;;;5025464;28;8802;-70
2022/11/29 08:36:34;;;;;;;;;11.50;11.50;;;;;;;;5010401;28;8913;-71
2022/11/29 08:39:02;;;;;;;;;13.50;11.50;;;;;;;;5010383;28;11733;-71
2022/11/29 08:41:28;;;;;;;;;13.00;11.00;;;;;;;;5010448;28;8814;-71
2022/11/29 08:43:53;;;;;;;;;15.00;9.00;;;;;;;;5010232;28;11646;-69
2022/11/29 08:46:19;;;;;;;;;13.25;13.25;;;;;;;;5010351;28;8837;-71
2022/11/29 08:48:45;;;;;;;;;11.00;10.00;;;;;;;;5010687;28;8806;-72
2022/11/29 08:51:10;;;;;;;;;11.00;9.50;;;;;;;;5010516;28;8924;-71
2022/11/29 08:53:41;;;;;;;;;10.25;10.25;;;;;;;;5010535;28;8815;-69
2022/11/29 08:56:10;;;;;;;;;11.00;10.50;;;;;;;;5010709;28;8803;-69
2022/11/29 08:58:36;;;;;;;;;12.00;10.00;;;;;;;;5009783;28;11641;-70
2022/11/29 09:01:02;;;;;;;;;15.00;12.50;;;;;;;;5009882;28;11653;-74
2022/11/29 09:06:12;;;;;;;;;13.25;11.00;;;;;;;;5010050;28;9171;-70
2022/11/29 09:08:38;;;;;;;;;11.00;11.00;;;;;;;;5009654;28;11534;-70
2022/11/29 09:11:07;;;;;;;;;10.00;10.00;;;;;;;;5009777;28;11530;-70
2022/11/29 09:13:32;;;;;;;;;13.00;10.75;;;;;;;;5009744;28;8937;-71
2022/11/29 09:15:58;;;;;;;;;12.75;10.25;;;;;;;;5009688;28;11605;-71
2022/11/29 09:18:23;;;;;;;;;12.75;10.50;;;;;;;;5009729;28;8798;-70
2022/11/29 09:20:48;;;;;;;;;9.50;9.00;;;;;;;;5010013;28;8822;-70
2022/11/29 09:23:13;;;;;;;;;11.25;10.00;;;;;;;;5009628;28;8817;-69
2022/11/29 09:25:39;;;;;;;;;12.25;11.00;;;;;;;;5010478;28;8883;-69
2022/11/29 09:28:04;;;;;;;;;15.00;12.25;;;;;;;;5012284;28;8802;-69
2022/11/29 09:30:30;;;;;;;;;0.75;0.75;;;;;;;;5009787;28;8937;-69
2022/11/29 09:33:01;;;;;;;;;14.25;11.75;;;;;;;;5008194;28;8829;-70
2022/11/29 09:35:26;;;;;;;;;8.00;8.00;;;;;;;;5009790;28;8859;-70
2022/11/29 09:37:52;;;;;;;;;10.75;7.25;;;;;;;;5009474;28;11454;-70
2022/11/29 09:40:18;;;;;;;;;6.00;6.00;;;;;;;;5024511;28;8842;-71
2022/11/29 09:42:44;;;;;;;;;7.00;5.00;;;;;;;;5009464;28;8817;-71
2022/11/29 09:45:12;;;;;;;;;8.00;8.00;;;;;;;;5009520;28;11466;-70
2022/11/29 09:47:37;;;;;;;;;8.00;8.00;;;;;;;;5024756;28;8823;-70
2022/11/29 09:50:02;;;;;;;;;9.00;7.00;;;;;;;;5009479;28;11577;-70
2022/11/29 09:52:46;;;;;;;;;7.00;7.00;;;;;;;;5009594;28;9619;-70
2022/11/29 09:55:34;;;;;;;;;7.25;5.50;;;;;;;;5009393;28;8790;-70
2022/11/29 09:58:00;;;;;;;;;6.50;5.00;;;;;;;;5008375;28;11548;-69
2022/11/29 10:00:27;;;;;;;;;7.00;4.00;;;;;;;;5009238;28;11511;-70
2022/11/29 10:02:55;;;;;;;;;2.00;2.00;;;;;;;;5009372;28;8814;-69
2022/11/29 10:05:23;;;;;;;;;2.00;2.00;;;;;;;;5009316;28;11578;-71
2022/11/29 10:07:57;;;;;;;;;2.00;2.00;;;;;;;;5009173;28;11533;-69
2022/11/29 10:10:43;;;;;;;;;12.00;8.00;;;;;;;;5009110;28;12261;-70
2022/11/29 10:13:14;;;;;;;;;11.00;9.00;;;;;;;;5009075;28;11526;-69
2022/11/29 10:15:42;;;;;;;;;5.50;5.50;;;;;;;;5009314;28;11499;-70
2022/11/29 10:18:23;;;;;;;;;1.00;1.00;;;;;;;;5009220;28;10909;-71
2022/11/29 10:20:49;;;;;;;;;0.25;0.25;;;;;;;;5009635;28;11513;-70
2022/11/29 10:23:26;;;;;;;;;2.00;1.00;;;;;;;;5009219;28;11482;-70
2022/11/29 10:25:53;;;;;;;;;2.00;1.00;;;;;;;;5009402;28;11487;-70
2022/11/29 10:28:24;;;;;;;;;3.00;1.50;;;;;;;;5009162;28;11563;-70
2022/11/29 10:30:52;;;;;;;;;1.00;1.00;;;;;;;;5009114;28;11487;-70
2022/11/29 10:33:19;;;;;;;;;3.50;1.75;;;;;;;;5009221;28;11488;-70
2022/11/29 10:35:47;;;;;;;;;1.50;0.75;;;;;;;;5009121;28;11506;-70
2022/11/29 10:38:12;;;;;;;;;0.75;0.00;;;;;;;;5012622;28;11765;-69
2022/11/29 10:40:38;;;;;;;;;2.00;2.00;;;;;;;;5012701;28;11529;-70
2022/11/29 10:43:03;;;;;;;;;3.50;1.00;;;;;;;;5012601;28;8806;-69
2022/11/29 10:45:33;;;;;;;;;1.00;1.00;;;;;;;;5027759;28;11473;-69
2022/11/29 10:48:06;;;;;;;;;1.00;1.00;;;;;;;;5012736;28;8838;-70
2022/11/29 10:50:33;;;;;;;;;0.00;0.00;;;;;;;;5012477;28;11495;-69
2022/11/29 10:53:25;;;;;;;;;1.00;1.00;;;;;;;;5012659;28;11611;-70
2022/11/29 10:55:57;;;;;;;;;1.00;1.00;;;;;;;;5010728;28;11560;-70
2022/11/29 10:58:24;;;;;;;;;0.00;0.00;;;;;;;;5012816;28;11473;-68
2022/11/29 11:00:53;;;;;;;;;0.00;0.00;;;;;;;;5027269;28;12280;-68
2022/11/29 11:03:38;;;;;;;;;1.00;1.00;;;;;;;;5012109;28;12215;-70
2022/11/29 11:06:10;;;;;;;;;3.00;1.00;;;;;;;;5012054;28;12244;-69
2022/11/29 11:08:36;;;;;;;;;3.25;1.00;;;;;;;;5012220;28;11971;-70
2022/11/29 11:11:04;;;;;;;;;0.25;0.25;;;;;;;;5012077;28;12237;-70
2022/11/29 11:13:30;;;;;;;;;1.75;0.25;;;;;;;;5012094;28;11476;-68
2022/11/29 11:16:14;;;;;;;;;1.00;0.25;;;;;;;;5012050;28;11468;-70
2022/11/29 11:18:39;;;;;;;;;1.00;1.00;;;;;;;;5011824;28;12347;-69
2022/11/29 11:21:08;;;;;;;;;0.25;0.00;;;;;;;;5011741;28;11593;-70
2022/11/29 11:23:35;;;;;;;;;0.00;0.00;;;;;;;;5012016;28;8830;-69
2022/11/29 11:26:03;;;;;;;;;2.00;0.00;;;;;;;;5011718;28;12272;-70
2022/11/29 11:28:37;;;;;;;;;0.00;0.00;;;;;;;;5011557;28;11433;-70
2022/11/29 11:31:04;;;;;;;;;0.75;0.75;;;;;;;;5010278;28;12270;-70
2022/11/29 11:33:33;;;;;;;;;0.00;0.00;;;;;;;;5011590;28;11479;-71
2022/11/29 11:36:04;;;;;;;;;1.75;0.00;;;;;;;;5011678;28;11498;-70
2022/11/29 11:38:29;;;;;;;;;0.00;0.00;;;;;;;;5013795;28;11554;-70
2022/11/29 11:41:13;;;;;;;;;0.00;0.00;;;;;;;;5014357;28;11444;-70
2022/11/29 11:43:38;;;;;;;;;0.00;0.00;;;;;;;;5011636;28;8837;-70
2022/11/29 11:46:04;;;;;;;;;0.00;0.00;;;;;;;;5011419;28;11409;-70
2022/11/29 11:48:29;;;;;;;;;0.00;0.00;;;;;;;;5011541;28;8934;-70
2022/11/29 11:50:57;;;;;;;;;0.50;0.50;;;;;;;;5011344;28;8806;-70
2022/11/29 11:53:27;;;;;;;;;0.00;0.00;;;;;;;;5011433;28;9625;-70
2022/11/29 11:55:59;;;;;;;;;0.00;0.00;;;;;;;;5011128;28;11399;-70
2022/11/29 11:58:31;;;;;;;;;0.00;0.00;;;;;;;;5011795;28;12186;-70
2022/11/29 12:00:59;;;;;;;;;0.00;0.00;;;;;;;;5011214;28;11430;-70
2022/11/29 12:03:25;;;;;;;;;0.00;0.00;;;;;;;;5026336;28;11432;-70
2022/11/29 12:05:53;;;;;;;;;0.00;0.00;;;;;;;;5011045;28;11416;-70
2022/11/29 12:08:18;;;;;;;;;0.25;0.25;;;;;;;;5011470;28;8905;-71
2022/11/29 12:10:44;;;;;;;;;0.00;0.00;;;;;;;;5010885;28;11600;-70
2022/11/29 12:13:29;;;;;;;;;0.50;0.00;;;;;;;;5011115;28;8806;-70
2022/11/29 12:15:55;;;;;;;;;0.00;0.00;;;;;;;;5010755;28;11460;-70
2022/11/29 12:18:24;;;;;;;;;0.00;0.00;;;;;;;;5010884;28;11483;-70
2022/11/29 12:20:55;;;;;;;;;0.00;0.00;;;;;;;;5010661;28;8826;-69
2022/11/29 12:23:23;;;;;;;;;1.75;0.00;;;;;;;;5010669;28;11525;-70
2022/11/29 12:25:51;;;;;;;;;1.00;0.75;;;;;;;;5010853;28;11496;-70
2022/11/29 12:28:18;;;;;;;;;1.00;0.00;;;;;;;;5025637;28;11502;-69
2022/11/29 12:31:01;;;;;;;;;0.00;0.00;;;;;;;;5010477;28;11478;-69
2022/11/29 12:33:39;;;;;;;;;0.00;0.00;;;;;;;;5025534;28;11626;-70
2022/11/29 12:36:10;;;;;;;;;0.00;0.00;;;;;;;;5010214;28;11485;-70
2022/11/29 12:38:47;;;;;;;;;0.00;0.00;;;;;;;;5010371;28;11616;-70
2022/11/29 12:41:18;;;;;;;;;0.00;0.00;;;;;;;;5010482;28;11473;-70
2022/11/29 12:43:51;;;;;;;;;0.00;0.00;;;;;;;;5025278;28;12418;-70
2022/11/29 12:46:20;;;;;;;;;0.00;0.00;;;;;;;;5008764;28;11569;-70
2022/11/29 12:49:00;;;;;;;;;0.00;0.00;;;;;;;;5010218;28;11541;-70
2022/11/29 12:51:34;;;;;;;;;0.00;0.00;;;;;;;;5010261;28;11633;-70
2022/11/29 12:54:14;;;;;;;;;0.00;0.00;;;;;;;;5009967;28;11471;-70
2022/11/29 12:56:42;;;;;;;;;0.50;0.50;;;;;;;;5010363;28;11418;-70
2022/11/29 12:59:26;;;;;;;;;0.00;0.00;;;;;;;;5009649;28;11448;-69
2022/11/29 13:01:54;;;;;;;;;6.75;5.50;;;;;;;;5009910;28;11477;-69
2022/11/29 13:04:25;;;;;;;;;1.00;1.00;;;;;;;;5009913;28;11495;-70
2022/11/29 13:07:00;;;;;;;;;1.75;0.75;;;;;;;;5009806;28;11584;-70
2022/11/29 13:09:32;;;;;;;;;0.00;0.00;;;;;;;;5025080;28;11480;-69
2022/11/29 13:12:03;;;;;;;;;0.25;0.00;;;;;;;;5009936;28;11484;-69
2022/11/29 13:14:33;;;;;;;;;0.00;0.00;;;;;;;;5009859;28;11440;-70
2022/11/29 13:17:00;;;;;;;;;0.00;0.00;;;;;;;;5009771;28;11508;-70
2022/11/29 13:19:29;;;;;;;;;0.00;0.00;;;;;;;;5009594;28;11555;-70
2022/11/29 13:22:03;;;;;;;;;0.00;0.00;;;;;;;;5009701;28;11629;-70
2022/11/29 13:24:43;;;;;;;;;0.00;0.00;;;;;;;;5009709;28;12214;-70
2022/11/29 13:27:13;;;;;;;;;0.00;0.00;;;;;;;;5010062;28;12261;-71
2022/11/29 13:29:39;;;;;;;;;0.00;0.00;;;;;;;;5009652;28;11520;-69
2022/11/29 13:32:07;;;;;;;;;0.00;0.00;;;;;;;;5009813;28;11578;-70
2022/11/29 13:34:41;;;;;;;;;0.00;0.00;;;;;;;;5009694;28;8817;-70
2022/11/29 13:37:13;;;;;;;;;0.00;0.00;;;;;;;;5009593;28;11471;-69
2022/11/29 13:39:57;;;;;;;;;0.00;0.00;;;;;;;;5009364;28;11510;-70
2022/11/29 13:42:27;;;;;;;;;1.00;0.00;;;;;;;;5009428;28;11484;-70
2022/11/29 13:45:02;;;;;;;;;0.00;0.00;;;;;;;;5009671;28;11459;-70
2022/11/29 13:47:27;;;;;;;;;0.00;0.00;;;;;;;;5009548;28;11574;-70
2022/11/29 13:49:54;;;;;;;;;1.00;0.00;;;;;;;;5009485;28;11745;-70
2022/11/29 13:52:40;;;;;;;;;0.00;0.00;;;;;;;;5011634;28;8798;-71
2022/11/29 13:55:11;;;;;;;;;0.00;0.00;;;;;;;;5011622;28;11477;-70
2022/11/29 13:58:00;;;;;;;;;0.00;0.00;;;;;;;;5009760;28;11468;-69
2022/11/29 14:00:35;;;;;;;;;0.00;0.00;;;;;;;;5018074;28;11470;-69
2022/11/29 14:03:19;;;;;;;;;0.00;0.00;;;;;;;;5028873;28;11562;-69
2022/11/29 14:05:45;;;;;;;;;0.00;0.00;;;;;;;;5021912;28;11514;-69
2022/11/29 14:08:31;;;;;;;;;0.00;0.00;;;;;;;;5009421;28;11435;-70
2022/11/29 14:10:59;;;;;;;;;0.00;0.00;;;;;;;;5011252;28;11499;-70
2022/11/29 14:13:37;;;;;;;;;0.00;0.00;;;;;;;;5013136;28;12224;-70
2022/11/29 14:16:03;;;;;;;;;0.00;0.00;;;;;;;;5013253;28;11464;-70
2022/11/29 14:18:41;;;;;;;;;0.00;0.00;;;;;;;;5028380;28;11522;-73
2022/11/29 14:21:07;;;;;;;;;0.00;0.00;;;;;;;;5013209;28;11622;-69
2022/11/29 14:23:36;;;;;;;;;0.75;0.00;;;;;;;;5015340;28;11495;-70
2022/11/29 14:26:02;;;;;;;;;0.00;0.00;;;;;;;;5012822;28;11492;-70
2022/11/29 14:28:27;;;;;;;;;0.25;0.00;;;;;;;;5015259;28;11519;-72
2022/11/29 14:31:01;;;;;;;;;0.00;0.00;;;;;;;;5015340;28;8840;-69
2022/11/29 14:33:29;;;;;;;;;0.00;0.00;;;;;;;;5013292;28;8828;-69
2022/11/29 14:36:13;;;;;;;;;0.00;0.00;;;;;;;;5012800;28;11464;-71
2022/11/29 14:38:44;;;;;;;;;0.00;0.00;;;;;;;;5012662;28;11502;-71
2022/11/29 14:41:25;;;;;;;;;0.75;0.00;;;;;;;;5012831;28;11499;-72
2022/11/29 14:44:02;;;;;;;;;0.50;0.00;;;;;;;;5013349;28;11485;-71
2022/11/29 14:46:30;;;;;;;;;0.00;0.00;;;;;;;;5025775;28;11591;-71
2022/11/29 14:48:55;;;;;;;;;0.00;0.00;;;;;;;;5038503;28;11476;-71
2022/11/29 14:51:21;;;;;;;;;0.00;0.00;;;;;;;;5020570;28;11512;-71
2022/11/29 14:53:50;;;;;;;;;0.00;0.00;;;;;;;;5020026;28;9529;-70
2022/11/29 14:56:43;;;;;;;;;0.00;0.00;;;;;;;;5020978;28;11504;-72
